createdAt,value
2022-12-29T00:00:38.880Z,5.17
2022-12-29T00:03:13.845Z,5.04
2022-12-29T00:05:44.279Z,5.07
2022-12-29T00:08:14.606Z,4.97
2022-12-29T00:10:45.241Z,4.98
2022-12-29T00:13:31.709Z,4.99
2022-12-29T00:16:00.668Z,5.15
2022-12-29T00:18:29.825Z,5.07
2022-12-29T00:21:16.138Z,5.12
2022-12-29T00:24:04.389Z,5.03
2022-12-29T00:26:50.892Z,5.09
2022-12-29T00:29:37.908Z,5.03
2022-12-29T00:32:26.679Z,4.86
2022-12-29T00:35:10.726Z,4.77
2022-12-29T00:38:00.205Z,4.83
2022-12-29T00:40:46.741Z,4.79
2022-12-29T00:43:33.217Z,4.82
2022-12-29T00:46:01.868Z,4.90
2022-12-29T00:48:48.648Z,4.84
2022-12-29T00:51:17.347Z,4.96
2022-12-29T00:53:47.057Z,4.93
2022-12-29T00:56:16.082Z,5.00
2022-12-29T00:58:46.562Z,4.91
2022-12-29T01:01:15.345Z,5.01
2022-12-29T01:03:44.115Z,4.86
2022-12-29T01:06:13.627Z,4.95
2022-12-29T01:08:42.911Z,4.88
2022-12-29T01:11:14.202Z,5.01
2022-12-29T01:13:44.485Z,5.00
2022-12-29T01:16:13.329Z,4.79
2022-12-29T01:18:42.127Z,4.74
2022-12-29T01:21:13.664Z,4.77
2022-12-29T01:23:49.909Z,4.78
2022-12-29T01:26:19.679Z,4.71
2022-12-29T01:28:54.527Z,4.66
2022-12-29T01:31:23.596Z,4.84
2022-12-29T01:33:52.931Z,4.78
2022-12-29T01:36:22.004Z,4.78
2022-12-29T01:38:52.224Z,4.84
2022-12-29T01:41:21.381Z,4.62
2022-12-29T01:43:52.688Z,4.60
2022-12-29T01:46:42.060Z,4.58
2022-12-29T01:49:16.178Z,4.52
2022-12-29T01:51:49.629Z,4.63
2022-12-29T01:54:24.162Z,4.52
2022-12-29T01:56:55.891Z,4.50
2022-12-29T01:59:27.617Z,4.58
2022-12-29T02:01:59.298Z,4.58
2022-12-29T02:04:33.258Z,4.54
2022-12-29T02:07:09.270Z,4.46
2022-12-29T02:09:38.538Z,4.58
2022-12-29T02:12:09.574Z,4.68
2022-12-29T02:14:38.375Z,4.47
2022-12-29T02:17:21.994Z,4.43
2022-12-29T02:20:02.531Z,4.41
2022-12-29T02:22:56.554Z,4.47
2022-12-29T02:25:57.078Z,4.39
2022-12-29T02:28:37.424Z,4.35
2022-12-29T02:31:21.064Z,4.34
2022-12-29T02:33:58.720Z,4.22
2022-12-29T02:36:57.833Z,4.23
2022-12-29T02:39:44.231Z,4.23
2022-12-29T02:42:18.809Z,4.13
2022-12-29T02:45:08.551Z,4.25
2022-12-29T02:47:42.950Z,4.22
2022-12-29T02:50:26.715Z,4.18
2022-12-29T02:53:01.133Z,4.25
2022-12-29T02:55:29.822Z,4.33
2022-12-29T02:58:19.653Z,4.30
2022-12-29T03:00:57.707Z,4.46
2022-12-29T03:03:44.299Z,4.57
2022-12-29T03:06:34.360Z,4.51
2022-12-29T03:09:19.178Z,4.26
2022-12-29T03:12:00.136Z,4.03
2022-12-29T03:14:49.412Z,4.09
2022-12-29T03:17:37.659Z,4.28
2022-12-29T03:20:12.278Z,4.38
2022-12-29T03:22:43.840Z,4.40
2022-12-29T03:25:33.545Z,4.38
2022-12-29T03:28:09.007Z,4.35
2022-12-29T03:30:40.433Z,4.21
2022-12-29T03:33:12.127Z,4.03
2022-12-29T03:35:48.472Z,4.02
2022-12-29T03:38:20.030Z,3.81
2022-12-29T03:40:54.514Z,3.71
2022-12-29T03:43:23.497Z,3.48
2022-12-29T03:45:52.172Z,3.29
2022-12-29T03:48:21.085Z,3.16
2022-12-29T03:50:49.710Z,2.98
2022-12-29T03:53:18.712Z,2.98
2022-12-29T03:55:47.656Z,2.79
2022-12-29T03:58:16.287Z,2.75
2022-12-29T04:00:46.621Z,2.76
2022-12-29T04:03:15.300Z,2.80
2022-12-29T04:05:43.910Z,2.67
2022-12-29T04:08:12.616Z,2.53
2022-12-29T04:10:41.437Z,2.53
2022-12-29T04:13:10.065Z,2.57
2022-12-29T04:15:40.345Z,2.63
2022-12-29T04:18:09.046Z,2.50
2022-12-29T04:20:41.770Z,2.41
2022-12-29T04:23:10.919Z,2.38
2022-12-29T04:25:41.062Z,2.31
2022-12-29T04:28:09.741Z,2.43
2022-12-29T04:30:38.567Z,2.48
2022-12-29T04:33:07.113Z,2.41
2022-12-29T04:35:36.372Z,2.31
2022-12-29T04:38:05.529Z,2.31
2022-12-29T04:40:34.241Z,2.43
2022-12-29T04:43:03.148Z,2.43
2022-12-29T04:45:31.872Z,2.42
2022-12-29T04:48:00.674Z,2.31
2022-12-29T04:50:30.403Z,2.33
2022-12-29T04:52:59.142Z,2.23
2022-12-29T04:55:28.194Z,2.24
2022-12-29T04:58:08.201Z,2.35
2022-12-29T05:00:48.658Z,2.19
2022-12-29T05:03:25.932Z,2.21
2022-12-29T05:06:04.959Z,2.10
2022-12-29T05:08:35.836Z,2.07
2022-12-29T05:11:07.864Z,2.07
2022-12-29T05:13:38.801Z,2.14
2022-12-29T05:16:12.945Z,2.28
2022-12-29T05:18:42.254Z,2.37
2022-12-29T05:21:15.604Z,2.40
2022-12-29T05:23:48.013Z,2.52
2022-12-29T05:26:20.174Z,2.62
2022-12-29T05:28:56.003Z,2.52
2022-12-29T05:31:48.216Z,2.54
2022-12-29T05:34:34.629Z,2.59
2022-12-29T05:37:01.182Z,2.65
2022-12-29T05:39:34.307Z,2.65
2022-12-29T05:42:06.721Z,2.71
2022-12-29T05:44:47.744Z,2.80
2022-12-29T05:47:18.534Z,2.84
2022-12-29T05:49:52.155Z,2.99
2022-12-29T05:52:50.144Z,3.16
2022-12-29T05:55:28.464Z,3.46
2022-12-29T05:58:04.678Z,3.56
2022-12-29T06:00:41.541Z,3.56
2022-12-29T06:03:09.404Z,3.64
2022-12-29T06:05:42.125Z,3.54
2022-12-29T06:08:24.096Z,3.55
2022-12-29T06:11:12.321Z,3.79
2022-12-29T06:13:45.464Z,3.93
2022-12-29T06:16:19.335Z,3.97
2022-12-29T06:18:55.116Z,4.06
2022-12-29T06:21:33.450Z,4.02
2022-12-29T06:24:05.672Z,4.16
2022-12-29T06:26:38.299Z,4.22
2022-12-29T06:29:13.182Z,4.21
2022-12-29T06:31:54.778Z,4.27
2022-12-29T06:34:27.857Z,4.22
2022-12-29T06:37:04.066Z,4.42
2022-12-29T06:43:02.890Z,4.48
2022-12-29T06:45:37.732Z,4.50
2022-12-29T06:48:10.671Z,4.50
2022-12-29T06:50:54.915Z,4.62
2022-12-29T06:53:27.024Z,4.73
2022-12-29T06:56:22.483Z,4.98
2022-12-29T07:08:35.594Z,5.37
2022-12-29T07:11:16.238Z,5.57
2022-12-29T07:14:12.345Z,5.67
2022-12-29T07:17:10.285Z,5.64
2022-12-29T07:19:40.194Z,5.79
2022-12-29T07:28:04.730Z,5.99
2022-12-29T07:31:05.638Z,6.03
2022-12-29T07:33:10.846Z,6.26
2022-12-29T07:35:39.955Z,6.33
2022-12-29T07:38:21.048Z,6.59
2022-12-29T07:40:49.480Z,6.89
2022-12-29T07:43:29.287Z,6.99
2022-12-29T07:49:19.818Z,7.44
2022-12-29T07:51:56.331Z,7.43
2022-12-29T07:54:43.645Z,6.81
2022-12-29T07:57:29.663Z,7.24
2022-12-29T07:59:58.562Z,7.32
2022-12-29T08:02:56.589Z,7.51
2022-12-29T08:07:12.927Z,5.92
2022-12-29T08:08:48.028Z,8.03
2022-12-29T08:11:43.668Z,6.83
2022-12-29T08:20:15.901Z,8.29
2022-12-29T08:20:55.835Z,7.59
2022-12-29T08:23:03.305Z,7.55
2022-12-29T08:25:45.283Z,7.42
2022-12-29T08:28:41.751Z,7.59
2022-12-29T08:31:20.314Z,8.35
2022-12-29T08:38:16.539Z,8.66
2022-12-29T08:49:16.264Z,8.65
2022-12-29T08:51:54.416Z,8.85
2022-12-29T08:54:18.121Z,8.78
2022-12-29T08:56:56.934Z,8.36
2022-12-29T08:59:30.056Z,8.07
2022-12-29T09:02:02.838Z,8.06
2022-12-29T09:04:38.653Z,8.18
2022-12-29T09:07:11.898Z,8.25
2022-12-29T09:09:51.740Z,8.88
2022-12-29T09:12:47.863Z,9.19
2022-12-29T09:15:13.973Z,8.00
2022-12-29T09:17:44.671Z,8.65
2022-12-29T09:20:15.625Z,8.86
2022-12-29T09:22:44.723Z,8.75
2022-12-29T09:25:14.240Z,8.88
2022-12-29T09:27:42.989Z,8.90
2022-12-29T09:30:15.455Z,9.40
2022-12-29T09:32:45.836Z,9.38
2022-12-29T09:35:19.209Z,8.90
2022-12-29T09:37:47.861Z,8.66
2022-12-29T09:40:31.545Z,8.43
2022-12-29T09:47:08.024Z,8.58
2022-12-29T09:52:59.928Z,8.73
2022-12-29T09:55:45.329Z,8.87
2022-12-29T09:58:42.898Z,8.96
2022-12-29T10:01:46.562Z,8.67
2022-12-29T10:14:18.920Z,9.15
2022-12-29T10:24:09.176Z,8.59
2022-12-29T10:33:06.341Z,9.25
2022-12-29T10:37:00.865Z,9.89
2022-12-29T10:39:30.785Z,10.08
2022-12-29T10:42:38.344Z,10.29
2022-12-29T10:45:08.445Z,10.61
2022-12-29T10:47:40.026Z,10.72
2022-12-29T10:50:09.397Z,10.45
2022-12-29T10:52:56.844Z,10.64
2022-12-29T11:05:20.079Z,9.98
2022-12-29T11:11:00.440Z,10.00
2022-12-29T11:14:00.515Z,10.00
2022-12-29T11:16:55.585Z,9.81
2022-12-29T11:29:32.639Z,9.42
2022-12-29T11:35:41.174Z,9.68
2022-12-29T11:45:41.506Z,10.01
2022-12-29T11:56:45.050Z,9.34
2022-12-29T12:01:47.726Z,9.29
2022-12-29T12:04:28.336Z,9.57
2022-12-29T12:07:15.937Z,9.71
2022-12-29T12:09:50.675Z,9.58
2022-12-29T12:12:30.027Z,9.54
2022-12-29T12:15:01.019Z,9.67
2022-12-29T12:17:37.332Z,9.62
2022-12-29T12:20:09.092Z,9.93
2022-12-29T12:22:48.849Z,10.03
2022-12-29T12:25:29.298Z,10.13
2022-12-29T12:28:09.912Z,10.08
2022-12-29T12:30:41.873Z,10.06
2022-12-29T12:33:16.641Z,10.22
2022-12-29T12:35:51.585Z,10.17
2022-12-29T12:38:44.676Z,10.22
2022-12-29T12:41:25.564Z,10.12
2022-12-29T12:44:06.232Z,9.94
2022-12-29T12:46:41.066Z,9.92
2022-12-29T12:49:44.478Z,9.80
2022-12-29T12:52:40.310Z,9.85
2022-12-29T12:55:31.286Z,9.92
2022-12-29T12:58:11.772Z,9.87
2022-12-29T13:00:46.084Z,10.03
2022-12-29T13:03:40.258Z,9.79
2022-12-29T13:06:27.137Z,9.62
2022-12-29T13:09:17.086Z,9.42
2022-12-29T13:12:13.033Z,9.11
2022-12-29T13:15:02.560Z,9.12
2022-12-29T13:17:34.275Z,8.96
2022-12-29T13:20:33.177Z,8.89
2022-12-29T13:23:21.384Z,8.80
2022-12-29T13:26:02.044Z,9.10
2022-12-29T13:28:42.529Z,9.22
2022-12-29T13:31:37.192Z,9.22
2022-12-29T13:34:28.837Z,9.21
2022-12-29T13:37:01.162Z,9.22
2022-12-29T13:39:42.032Z,9.31
2022-12-29T13:42:16.162Z,9.42
2022-12-29T13:45:05.589Z,9.19
2022-12-29T13:47:37.179Z,9.24
2022-12-29T13:50:09.178Z,9.40
2022-12-29T13:52:40.784Z,9.22
2022-12-29T13:55:29.188Z,9.43
2022-12-29T13:58:06.681Z,9.32
2022-12-29T14:00:40.946Z,9.38
2022-12-29T14:03:26.507Z,9.49
2022-12-29T14:06:06.555Z,9.60
2022-12-29T14:08:36.857Z,9.60
2022-12-29T14:11:08.437Z,9.54
2022-12-29T14:13:40.985Z,9.50
2022-12-29T14:16:12.874Z,9.30
2022-12-29T14:18:46.797Z,9.18
2022-12-29T14:21:26.441Z,8.93
2022-12-29T14:23:55.428Z,8.75
2022-12-29T14:26:36.500Z,8.55
2022-12-29T14:29:27.819Z,8.40
2022-12-29T14:31:56.893Z,8.24
2022-12-29T14:34:31.252Z,8.29
2022-12-29T14:37:04.208Z,8.38
2022-12-29T14:42:43.008Z,8.37
2022-12-29T14:45:23.182Z,8.27
2022-12-29T14:47:55.591Z,8.14
2022-12-29T14:50:36.246Z,8.01
2022-12-29T14:53:08.139Z,7.88
2022-12-29T14:55:59.207Z,7.67
2022-12-29T14:58:36.514Z,7.62
2022-12-29T15:01:05.381Z,7.47
2022-12-29T15:03:41.157Z,7.46
2022-12-29T15:06:16.816Z,7.44
2022-12-29T15:09:25.583Z,7.47
2022-12-29T15:17:55.830Z,7.39
2022-12-29T15:20:32.690Z,7.50
2022-12-29T15:26:34.861Z,7.35
2022-12-29T15:35:43.257Z,6.89
2022-12-29T15:38:42.953Z,6.72
2022-12-29T15:42:46.763Z,6.80
2022-12-29T15:48:02.425Z,6.49
2022-12-29T15:57:05.366Z,6.23
2022-12-29T16:06:04.008Z,6.21
2022-12-29T16:08:41.134Z,6.18
2022-12-29T16:11:31.291Z,6.09
2022-12-29T16:14:07.838Z,6.15
2022-12-29T16:16:39.815Z,6.26
2022-12-29T16:19:15.406Z,6.47
2022-12-29T16:21:53.282Z,6.57
2022-12-29T16:24:38.151Z,6.54
2022-12-29T16:27:25.522Z,6.66
2022-12-29T16:30:00.483Z,6.73
2022-12-29T16:32:39.437Z,6.65
2022-12-29T16:35:44.385Z,6.61
2022-12-29T16:39:05.771Z,6.67
2022-12-29T16:44:32.894Z,6.49
2022-12-29T16:47:25.574Z,6.25
2022-12-29T16:55:56.652Z,5.99
2022-12-29T17:01:30.634Z,5.97
2022-12-29T17:04:19.856Z,5.98
2022-12-29T17:10:07.074Z,5.93
2022-12-29T17:12:55.660Z,5.82
2022-12-29T17:15:45.274Z,5.83
2022-12-29T17:18:33.658Z,5.81
2022-12-29T17:21:26.955Z,5.76
2022-12-29T17:30:20.261Z,5.54
2022-12-29T17:33:10.061Z,5.49
2022-12-29T17:42:09.176Z,5.21
2022-12-29T17:48:30.548Z,5.27
2022-12-29T17:53:59.739Z,5.19
2022-12-29T18:06:20.731Z,4.75
2022-12-29T18:09:01.719Z,5.36
2022-12-29T18:11:49.637Z,5.46
2022-12-29T18:14:29.876Z,5.53
2022-12-29T18:17:00.632Z,5.59
2022-12-29T18:22:49.547Z,5.78
2022-12-29T18:31:50.124Z,6.02
2022-12-29T18:34:24.691Z,5.99
2022-12-29T18:43:38.539Z,5.91
2022-12-29T18:49:02.720Z,6.01
2022-12-29T18:51:54.600Z,5.88
2022-12-29T18:57:49.825Z,5.68
2022-12-29T19:00:21.337Z,5.79
2022-12-29T19:02:55.051Z,5.94
2022-12-29T19:07:40.570Z,6.03
2022-12-29T19:08:32.222Z,6.02
2022-12-29T19:11:09.306Z,5.78
2022-12-29T19:13:54.826Z,5.82
2022-12-29T19:16:26.332Z,5.92
2022-12-29T19:19:09.228Z,6.11
2022-12-29T19:21:28.237Z,5.61
2022-12-29T19:23:57.416Z,6.22
2022-12-29T19:26:36.249Z,6.29
2022-12-29T19:29:06.644Z,6.28
2022-12-29T19:31:36.053Z,6.22
2022-12-29T19:34:04.959Z,6.12
2022-12-29T19:36:40.903Z,6.07
2022-12-29T19:39:09.741Z,6.26
2022-12-29T19:41:39.114Z,6.18
2022-12-29T19:44:08.597Z,6.05
2022-12-29T19:46:41.874Z,5.98
2022-12-29T19:49:13.045Z,6.14
2022-12-29T19:54:33.580Z,6.15
2022-12-29T20:00:03.746Z,6.29
2022-12-29T20:02:35.465Z,6.20
2022-12-29T20:05:04.761Z,6.25
2022-12-29T20:07:33.895Z,6.24
2022-12-29T20:10:03.393Z,6.16
2022-12-29T20:12:33.397Z,6.21
2022-12-29T20:20:49.184Z,5.93
2022-12-29T20:23:18.001Z,5.76
2022-12-29T20:25:47.696Z,5.53
2022-12-29T20:28:17.121Z,5.55
2022-12-29T20:30:46.313Z,5.75
2022-12-29T20:33:25.967Z,5.78
2022-12-29T20:35:55.109Z,5.71
2022-12-29T20:38:23.987Z,5.73
2022-12-29T20:43:48.392Z,5.88
2022-12-29T20:53:21.028Z,5.82
2022-12-29T20:59:29.036Z,5.95
2022-12-29T21:08:48.377Z,5.87
2022-12-29T21:11:18.651Z,5.75
2022-12-29T21:13:47.492Z,5.68
2022-12-29T21:16:19.115Z,5.79
2022-12-29T21:18:51.411Z,5.74
2022-12-29T21:21:23.376Z,5.78
2022-12-29T21:23:55.960Z,5.74
2022-12-29T21:26:26.039Z,5.85
2022-12-29T21:28:56.425Z,5.59
2022-12-29T21:31:36.356Z,5.57
2022-12-29T21:34:09.715Z,5.64
2022-12-29T21:36:41.680Z,5.61
2022-12-29T21:39:11.785Z,5.61
2022-12-29T21:41:42.350Z,5.69
2022-12-29T21:44:30.467Z,5.66
2022-12-29T21:47:00.415Z,5.61
2022-12-29T21:49:31.761Z,5.56
2022-12-29T21:52:03.408Z,5.58
2022-12-29T21:54:56.591Z,5.54
2022-12-29T21:57:48.512Z,5.62
2022-12-29T22:00:35.216Z,5.44
2022-12-29T22:03:30.935Z,5.43
2022-12-29T22:06:20.137Z,5.51
2022-12-29T22:09:12.035Z,5.66
2022-12-29T22:11:58.779Z,5.58
2022-12-29T22:14:27.431Z,5.16
2022-12-29T22:17:14.443Z,5.65
2022-12-29T22:19:42.947Z,5.69
2022-12-29T22:22:11.527Z,5.71
2022-12-29T22:24:40.111Z,5.67
2022-12-29T22:27:08.866Z,5.69
2022-12-29T22:29:37.495Z,5.78
2022-12-29T22:32:06.302Z,5.67
2022-12-29T22:34:34.973Z,5.45
2022-12-29T22:37:03.677Z,5.29
2022-12-29T22:39:32.284Z,5.24
2022-12-29T22:42:00.915Z,5.30
2022-12-29T22:44:29.568Z,5.24
2022-12-29T22:47:00.389Z,5.16
2022-12-29T22:49:29.523Z,5.08
2022-12-29T22:51:58.080Z,4.91
2022-12-29T22:54:26.975Z,5.11
2022-12-29T22:56:55.617Z,5.11
2022-12-29T22:59:26.101Z,5.13
2022-12-29T23:01:55.052Z,5.11
2022-12-29T23:05:01.896Z,5.12
2022-12-29T23:06:54.210Z,5.37
2022-12-29T23:09:24.090Z,5.41
2022-12-29T23:11:53.515Z,5.33
2022-12-29T23:14:22.168Z,5.24
2022-12-29T23:16:50.739Z,5.31
2022-12-29T23:19:19.536Z,5.28
2022-12-29T23:21:48.134Z,5.16
2022-12-29T23:24:16.828Z,5.10
2022-12-29T23:26:48.264Z,5.06
2022-12-29T23:29:19.613Z,5.24
2022-12-29T23:31:54.570Z,5.42
2022-12-29T23:34:22.611Z,5.46
2022-12-29T23:36:51.544Z,5.61
2022-12-29T23:39:24.572Z,5.63
2022-12-29T23:41:54.053Z,5.68
2022-12-29T23:44:22.724Z,5.80
2022-12-29T23:46:51.484Z,5.59
2022-12-29T23:49:20.190Z,5.68
2022-12-29T23:51:48.826Z,5.67
2022-12-29T23:54:19.257Z,5.65
2022-12-29T23:56:48.132Z,5.66
2022-12-29T23:59:16.924Z,5.78
